KJHN

Stanton County Municipal Airport

Johnson, Kansas, USA
METAR KJHN 211535Z AUTO 04004KT 10SM CLR M01/M02 A2965 RMK AO2 T10061021
Observed Flight Rules
Jan-21 @ 15:35 UTC (21 minutes ago) Visual Flight Rules
Wind Visibility Clouds
40° at 4 knots 10 miles
  • Clear skies
Temperatures Readings
Current -1°C / 30°F
Dewpoint -2°C / 28°F
Humidity 93%
Altimeter 29.65" Hg
Pressure 1004.02 hPa
Elevation 1013
METAR KJHN 211535Z AUTO 04004KT 10SM CLR M01/M02 A2965 RMK AO2 T10061021
Observed Flight Rules
Jan-21 @ 15:35 UTC
(21 minutes ago)
VFR
Wind Visibility
40° at 4 knots 10 miles
Clouds
  • Clear skies
Temperature Dewpoint
-1°C / 30°F -2°C / 28°F
Humidity Altimeter Pressure
93% 29.65" Hg 1004.02 hPa